Airfield :
LOGIN :

Register | Disclaimer

   EN    FR    IT 

 










Legend :    VFR   Marginal VFR   IFR   Intensive IFR   Very Intensive IFR
Visi :
Ceiling :
>= 8 km
>= 3000ft
5 to 8 km
1000 to 3000 ft
1500m to 5 km
500 to 1000 ft
800 to 1500m
200 to 500 ft
< 800m
< 200 ft
Symbols :   Thunderstorms  Fog  Heavy snow  Heavy precipitations  Wind > 20 kt
SIGMETs :     Misc.  Thunderstorms  Icing  Turbulence  Mountain Waves  Volcanic Ashes







- Airport Elevation : 325 ft
- IATA code : BES
- Download approach charts


LFRB - Brest

CURRENT METAR :
  • 201530Z AUTO 29010KT 260V320 9999 FEW024 OVC066 16/09 Q1018 NOSIG

EXPIRED METARs :
  • 201430Z AUTO 27010KT 9999 SCT028 SCT036 OVC068 16/10 Q1018 NOSIG
  • 201400Z AUTO 27009KT 230V300 9999 FEW028 SCT037 OVC070 16/10 Q1018 NOSIG
  • 201330Z AUTO 27010KT 240V300 9999 FEW032 OVC070 17/10 Q1018 NOSIG
  • 201300Z AUTO 28009KT 240V330 9999 FEW034 BKN068 17/10 Q1018 NOSIG

TAF TAF LFRB
Valid from the 20 at 12:00 until the 21 at 18:00 UTC


201100Z 2012/2118 30010KT 9999 SCT020 SCT030
BECMG 2021/2024 VRB03KT
TEMPO 2100/2106 0800 BCFG NSC
ATIS : +33 2 98 32 02 71
No reported NOTAMs for that airfield.



MET'MAP, your aeronautical weather chart ! - Copyright ORBIFLY December 2007 - Disclaimer

ORBIFLY MET'MAP TEAM :

Programming & Development : Alexandra Zaïnal
Concept & Development : Baudouin d'Aumeries
Co-Development & Prog : Marc-Olivier Méhu
Technical & hardware support : Manuel Goepfert

Contact : metmap@orbifly.com




SOURCES & CREDITS :

   NOAA